sensor_id;sensor_type;location;lat;lon;timestamp;pressure;altitude;pressure_sealevel;temperature;humidity
63956;BME280;50131;52.084;5.228;2022-08-19T00:02:59;101455.0;;;19.09;92.82
63956;BME280;50131;52.084;5.228;2022-08-19T00:04:36;101453.0;;;19.06;93.1
63956;BME280;50131;52.084;5.228;2022-08-19T00:06:13;101450.0;;;19.11;92.61
63956;BME280;50131;52.084;5.228;2022-08-19T00:09:27;101446.0;;;19.06;92.58
63956;BME280;50131;52.084;5.228;2022-08-19T00:11:04;101447.0;;;19.02;93.37
63956;BME280;50131;52.084;5.228;2022-08-19T00:12:41;101451.0;;;19.09;93.36
63956;BME280;50131;52.084;5.228;2022-08-19T00:14:18;101453.0;;;19.18;92.91
63956;BME280;50131;52.084;5.228;2022-08-19T00:17:31;101456.0;;;19.31;92.06
63956;BME280;50131;52.084;5.228;2022-08-19T00:19:08;101458.0;;;19.28;91.64
63956;BME280;50131;52.084;5.228;2022-08-19T00:20:45;101461.0;;;19.27;91.53
63956;BME280;50131;52.084;5.228;2022-08-19T00:23:58;101455.0;;;19.28;91.33
63956;BME280;50131;52.084;5.228;2022-08-19T00:25:36;101459.0;;;19.29;91.2
63956;BME280;50131;52.084;5.228;2022-08-19T00:27:12;101457.0;;;19.2;91.62
63956;BME280;50131;52.084;5.228;2022-08-19T00:30:27;101453.0;;;19.25;91.48
63956;BME280;50131;52.084;5.228;2022-08-19T00:32:04;101453.0;;;19.18;91.9
63956;BME280;50131;52.084;5.228;2022-08-19T00:33:41;101452.0;;;19.21;91.9
63956;BME280;50131;52.084;5.228;2022-08-19T00:35:18;101450.0;;;19.2;91.64
63956;BME280;50131;52.084;5.228;2022-08-19T00:38:32;101445.0;;;19.23;90.95
63956;BME280;50131;52.084;5.228;2022-08-19T00:40:11;101451.0;;;19.21;90.9
63956;BME280;50131;52.084;5.228;2022-08-19T00:41:49;101445.0;;;19.22;90.88
63956;BME280;50131;52.084;5.228;2022-08-19T00:45:10;101447.0;;;19.21;90.65
63956;BME280;50131;52.084;5.228;2022-08-19T00:46:49;101442.0;;;19.09;90.95
63956;BME280;50131;52.084;5.228;2022-08-19T00:48:26;101443.0;;;19.04;91.75
63956;BME280;50131;52.084;5.228;2022-08-19T00:50:03;101445.0;;;19.07;91.48
63956;BME280;50131;52.084;5.228;2022-08-19T00:53:26;101451.0;;;19.04;91.22
63956;BME280;50131;52.084;5.228;2022-08-19T00:55:05;101453.0;;;18.95;92.31
63956;BME280;50131;52.084;5.228;2022-08-19T00:56:45;101455.0;;;18.88;92.53
63956;BME280;50131;52.084;5.228;2022-08-19T00:58:24;101452.0;;;18.87;93.03
63956;BME280;50131;52.084;5.228;2022-08-19T01:01:46;101455.0;;;18.87;93.53
63956;BME280;50131;52.084;5.228;2022-08-19T01:03:23;101451.0;;;18.82;93.88
63956;BME280;50131;52.084;5.228;2022-08-19T01:05:02;101450.0;;;18.77;93.9
63956;BME280;50131;52.084;5.228;2022-08-19T01:06:41;101450.0;;;18.77;94.99
63956;BME280;50131;52.084;5.228;2022-08-19T01:09:55;101449.0;;;18.71;95.31
63956;BME280;50131;52.084;5.228;2022-08-19T01:11:36;101449.0;;;18.7;95.88
63956;BME280;50131;52.084;5.228;2022-08-19T01:13:21;101442.0;;;18.73;94.44
63956;BME280;50131;52.084;5.228;2022-08-19T01:14:59;101441.0;;;18.7;94.79
63956;BME280;50131;52.084;5.228;2022-08-19T01:18:16;101444.0;;;18.91;93.34
63956;BME280;50131;52.084;5.228;2022-08-19T01:19:53;101441.0;;;18.89;92.89
63956;BME280;50131;52.084;5.228;2022-08-19T01:21:33;101442.0;;;18.78;92.57
63956;BME280;50131;52.084;5.228;2022-08-19T01:23:20;101435.0;;;18.71;92.71
63956;BME280;50131;52.084;5.228;2022-08-19T01:26:38;101440.0;;;18.71;92.19
63956;BME280;50131;52.084;5.228;2022-08-19T01:28:19;101438.0;;;18.7;92.42
63956;BME280;50131;52.084;5.228;2022-08-19T01:29:55;101442.0;;;18.64;92.59
63956;BME280;50131;52.084;5.228;2022-08-19T01:33:07;101448.0;;;18.57;93.77
63956;BME280;50131;52.084;5.228;2022-08-19T01:34:46;101451.0;;;18.55;93.28
63956;BME280;50131;52.084;5.228;2022-08-19T01:36:24;101453.0;;;18.66;92.96
63956;BME280;50131;52.084;5.228;2022-08-19T01:38:09;101456.0;;;18.68;92.46
63956;BME280;50131;52.084;5.228;2022-08-19T01:41:23;101457.0;;;18.68;92.19
63956;BME280;50131;52.084;5.228;2022-08-19T01:43:01;101464.0;;;18.68;92.26
63956;BME280;50131;52.084;5.228;2022-08-19T01:44:38;101464.0;;;18.66;92.21
63956;BME280;50131;52.084;5.228;2022-08-19T01:47:52;101465.0;;;18.62;92.62
63956;BME280;50131;52.084;5.228;2022-08-19T01:49:29;101461.0;;;18.66;92.79
63956;BME280;50131;52.084;5.228;2022-08-19T01:51:07;101456.0;;;18.64;92.64
63956;BME280;50131;52.084;5.228;2022-08-19T01:52:45;101453.0;;;18.59;93.21
63956;BME280;50131;52.084;5.228;2022-08-19T01:56:01;101458.0;;;18.57;92.9
63956;BME280;50131;52.084;5.228;2022-08-19T01:57:40;101459.0;;;18.59;92.6
63956;BME280;50131;52.084;5.228;2022-08-19T01:59:21;101463.0;;;18.64;92.4
63956;BME280;50131;52.084;5.228;2022-08-19T02:01:00;101464.0;;;18.66;92.0
63956;BME280;50131;52.084;5.228;2022-08-19T02:04:12;101464.0;;;18.61;91.8
63956;BME280;50131;52.084;5.228;2022-08-19T02:05:55;101465.0;;;18.59;91.74
63956;BME280;50131;52.084;5.228;2022-08-19T02:07:33;101458.0;;;18.61;91.64
63956;BME280;50131;52.084;5.228;2022-08-19T02:10:46;101467.0;;;18.53;91.91
63956;BME280;50131;52.084;5.228;2022-08-19T02:12:22;101466.0;;;18.45;92.22
63956;BME280;50131;52.084;5.228;2022-08-19T02:14:00;101464.0;;;18.45;92.97
63956;BME280;50131;52.084;5.228;2022-08-19T02:17:13;101465.0;;;18.61;92.39
63956;BME280;50131;52.084;5.228;2022-08-19T02:18:50;101462.0;;;18.66;91.92
63956;BME280;50131;52.084;5.228;2022-08-19T02:20:26;101459.0;;;18.7;92.08
63956;BME280;50131;52.084;5.228;2022-08-19T02:22:03;101450.0;;;18.73;91.74
63956;BME280;50131;52.084;5.228;2022-08-19T02:25:16;101455.0;;;18.75;91.6
63956;BME280;50131;52.084;5.228;2022-08-19T02:26:53;101455.0;;;18.73;91.45
63956;BME280;50131;52.084;5.228;2022-08-19T02:28:29;101458.0;;;18.72;92.01
63956;BME280;50131;52.084;5.228;2022-08-19T02:31:47;101459.0;;;18.84;91.57
63956;BME280;50131;52.084;5.228;2022-08-19T02:33:23;101459.0;;;18.96;90.93
63956;BME280;50131;52.084;5.228;2022-08-19T02:35:00;101463.0;;;19.02;90.41
63956;BME280;50131;52.084;5.228;2022-08-19T02:36:36;101464.0;;;18.91;90.53
63956;BME280;50131;52.084;5.228;2022-08-19T02:40:06;101468.0;;;18.75;91.02
63956;BME280;50131;52.084;5.228;2022-08-19T02:41:44;101469.0;;;18.61;92.07
63956;BME280;50131;52.084;5.228;2022-08-19T02:43:21;101473.0;;;18.59;92.8
63956;BME280;50131;52.084;5.228;2022-08-19T02:44:58;101475.0;;;18.59;93.16
63956;BME280;50131;52.084;5.228;2022-08-19T02:48:11;101477.0;;;18.64;93.01
63956;BME280;50131;52.084;5.228;2022-08-19T02:49:49;101469.0;;;18.75;91.81
63956;BME280;50131;52.084;5.228;2022-08-19T02:51:29;101468.0;;;18.72;91.21
63956;BME280;50131;52.084;5.228;2022-08-19T02:54:46;101463.0;;;18.7;91.41
63956;BME280;50131;52.084;5.228;2022-08-19T02:56:23;101458.0;;;18.66;91.74
63956;BME280;50131;52.084;5.228;2022-08-19T02:57:59;101452.0;;;18.66;91.6
63956;BME280;50131;52.084;5.228;2022-08-19T02:59:36;101451.0;;;18.61;91.38
63956;BME280;50131;52.084;5.228;2022-08-19T03:02:57;101451.0;;;18.56;91.41
63956;BME280;50131;52.084;5.228;2022-08-19T03:04:33;101457.0;;;18.47;91.45
63956;BME280;50131;52.084;5.228;2022-08-19T03:06:12;101463.0;;;18.48;92.43
63956;BME280;50131;52.084;5.228;2022-08-19T03:09:26;101462.0;;;18.52;91.94
63956;BME280;50131;52.084;5.228;2022-08-19T03:11:03;101459.0;;;18.52;91.73
63956;BME280;50131;52.084;5.228;2022-08-19T03:12:40;101455.0;;;18.5;91.53
63956;BME280;50131;52.084;5.228;2022-08-19T03:14:18;101450.0;;;18.45;92.24
63956;BME280;50131;52.084;5.228;2022-08-19T03:17:30;101450.0;;;18.39;92.48
63956;BME280;50131;52.084;5.228;2022-08-19T03:19:06;101452.0;;;18.48;92.02
63956;BME280;50131;52.084;5.228;2022-08-19T03:20:44;101448.0;;;18.52;91.69
63956;BME280;50131;52.084;5.228;2022-08-19T03:24:00;101442.0;;;18.57;90.91
63956;BME280;50131;52.084;5.228;2022-08-19T03:25:45;101446.0;;;18.37;92.49
63956;BME280;50131;52.084;5.228;2022-08-19T03:27:24;101451.0;;;18.31;92.57
63956;BME280;50131;52.084;5.228;2022-08-19T03:29:02;101455.0;;;18.23;92.47
63956;BME280;50131;52.084;5.228;2022-08-19T03:32:19;101455.0;;;18.32;92.7
63956;BME280;50131;52.084;5.228;2022-08-19T03:33:55;101450.0;;;18.27;93.18
63956;BME280;50131;52.084;5.228;2022-08-19T03:35:31;101443.0;;;18.18;93.91
63956;BME280;50131;52.084;5.228;2022-08-19T03:38:53;101443.0;;;18.13;93.84
63956;BME280;50131;52.084;5.228;2022-08-19T03:40:30;101445.0;;;18.11;94.17
63956;BME280;50131;52.084;5.228;2022-08-19T03:42:07;101446.0;;;18.2;94.79
63956;BME280;50131;52.084;5.228;2022-08-19T03:43:47;101446.0;;;18.25;94.21
63956;BME280;50131;52.084;5.228;2022-08-19T03:47:00;101447.0;;;18.27;93.29
63956;BME280;50131;52.084;5.228;2022-08-19T03:48:37;101449.0;;;18.27;93.02
63956;BME280;50131;52.084;5.228;2022-08-19T03:50:15;101450.0;;;18.3;92.63
63956;BME280;50131;52.084;5.228;2022-08-19T03:51:53;101451.0;;;18.25;92.52
63956;BME280;50131;52.084;5.228;2022-08-19T03:55:08;101449.0;;;18.2;92.97
63956;BME280;50131;52.084;5.228;2022-08-19T03:56:47;101445.0;;;18.18;92.95
63956;BME280;50131;52.084;5.228;2022-08-19T03:58:25;101443.0;;;18.18;93.02
63956;BME280;50131;52.084;5.228;2022-08-19T04:01:42;101436.0;;;18.13;92.86
63956;BME280;50131;52.084;5.228;2022-08-19T04:03:19;101440.0;;;18.18;93.82
63956;BME280;50131;52.084;5.228;2022-08-19T04:04:55;101448.0;;;18.22;92.67
63956;BME280;50131;52.084;5.228;2022-08-19T04:06:32;101453.0;;;18.18;92.13
63956;BME280;50131;52.084;5.228;2022-08-19T04:09:48;101453.0;;;18.27;91.84
63956;BME280;50131;52.084;5.228;2022-08-19T04:11:25;101455.0;;;18.25;91.03
63956;BME280;50131;52.084;5.228;2022-08-19T04:13:04;101451.0;;;18.21;91.15
63956;BME280;50131;52.084;5.228;2022-08-19T04:16:17;101446.0;;;18.22;91.23
63956;BME280;50131;52.084;5.228;2022-08-19T04:17:56;101448.0;;;18.11;91.11
63956;BME280;50131;52.084;5.228;2022-08-19T04:19:33;101443.0;;;18.06;91.21
63956;BME280;50131;52.084;5.228;2022-08-19T04:21:15;101447.0;;;18.02;91.65
63956;BME280;50131;52.084;5.228;2022-08-19T04:24:29;101450.0;;;18.04;91.38
63956;BME280;50131;52.084;5.228;2022-08-19T04:26:06;101452.0;;;18.06;91.48
63956;BME280;50131;52.084;5.228;2022-08-19T04:27:46;101447.0;;;18.0;91.97
63956;BME280;50131;52.084;5.228;2022-08-19T04:31:01;101440.0;;;17.97;92.98
63956;BME280;50131;52.084;5.228;2022-08-19T04:32:37;101439.0;;;17.95;93.73
63956;BME280;50131;52.084;5.228;2022-08-19T04:34:17;101438.0;;;17.97;93.56
63956;BME280;50131;52.084;5.228;2022-08-19T04:35:58;101431.0;;;17.97;92.61
63956;BME280;50131;52.084;5.228;2022-08-19T04:39:13;101432.0;;;17.89;92.65
63956;BME280;50131;52.084;5.228;2022-08-19T04:43:47;101434.0;;;17.82;93.97
63956;BME280;50131;52.084;5.228;2022-08-19T04:45:24;101433.0;;;17.88;92.75
63956;BME280;50131;52.084;5.228;2022-08-19T04:47:00;101430.0;;;17.95;92.7
63956;BME280;50131;52.084;5.228;2022-08-19T04:48:38;101433.0;;;17.89;92.54
63956;BME280;50131;52.084;5.228;2022-08-19T04:51:54;101438.0;;;17.89;92.28
63956;BME280;50131;52.084;5.228;2022-08-19T04:53:32;101438.0;;;17.86;92.19
63956;BME280;50131;52.084;5.228;2022-08-19T04:55:10;101442.0;;;17.77;92.43
63956;BME280;50131;52.084;5.228;2022-08-19T04:56:49;101438.0;;;17.77;92.83
63956;BME280;50131;52.084;5.228;2022-08-19T05:00:05;101448.0;;;17.72;93.04
63956;BME280;50131;52.084;5.228;2022-08-19T05:01:43;101457.0;;;17.7;93.0
63956;BME280;50131;52.084;5.228;2022-08-19T05:03:19;101457.0;;;17.66;93.16
63956;BME280;50131;52.084;5.228;2022-08-19T05:06:35;101460.0;;;17.7;93.04
63956;BME280;50131;52.084;5.228;2022-08-19T05:08:12;101461.0;;;17.68;93.59
63956;BME280;50131;52.084;5.228;2022-08-19T05:09:50;101463.0;;;17.73;93.33
63956;BME280;50131;52.084;5.228;2022-08-19T05:11:28;101464.0;;;17.77;93.64
63956;BME280;50131;52.084;5.228;2022-08-19T05:14:49;101469.0;;;17.86;93.75
63956;BME280;50131;52.084;5.228;2022-08-19T05:16:26;101474.0;;;17.86;93.76
63956;BME280;50131;52.084;5.228;2022-08-19T05:24:30;101470.0;;;17.93;93.91
63956;BME280;50131;52.084;5.228;2022-08-19T05:26:06;101474.0;;;18.0;93.26
63956;BME280;50131;52.084;5.228;2022-08-19T05:29:20;101477.0;;;18.0;93.48
63956;BME280;50131;52.084;5.228;2022-08-19T05:30:57;101475.0;;;18.0;92.96
63956;BME280;50131;52.084;5.228;2022-08-19T05:32:34;101476.0;;;17.89;93.96
63956;BME280;50131;52.084;5.228;2022-08-19T05:35:50;101475.0;;;17.93;94.55
63956;BME280;50131;52.084;5.228;2022-08-19T05:37:27;101472.0;;;17.98;94.04
63956;BME280;50131;52.084;5.228;2022-08-19T05:39:04;101468.0;;;17.98;94.31
63956;BME280;50131;52.084;5.228;2022-08-19T05:40:42;101467.0;;;18.0;94.77
63956;BME280;50131;52.084;5.228;2022-08-19T05:43:57;101465.0;;;18.03;95.16
63956;BME280;50131;52.084;5.228;2022-08-19T05:45:38;101464.0;;;18.16;94.89
63956;BME280;50131;52.084;5.228;2022-08-19T05:47:16;101466.0;;;18.3;94.38
63956;BME280;50131;52.084;5.228;2022-08-19T05:50:30;101466.0;;;18.34;94.23
63956;BME280;50131;52.084;5.228;2022-08-19T05:52:09;101470.0;;;18.36;94.37
63956;BME280;50131;52.084;5.228;2022-08-19T05:53:47;101470.0;;;18.37;94.33
63956;BME280;50131;52.084;5.228;2022-08-19T05:55:23;101468.0;;;18.45;94.36
63956;BME280;50131;52.084;5.228;2022-08-19T05:58:38;101462.0;;;18.5;94.16
63956;BME280;50131;52.084;5.228;2022-08-19T06:00:15;101463.0;;;18.59;93.83
63956;BME280;50131;52.084;5.228;2022-08-19T06:01:54;101458.0;;;18.57;94.48
63956;BME280;50131;52.084;5.228;2022-08-19T06:05:10;101459.0;;;18.56;94.4
63956;BME280;50131;52.084;5.228;2022-08-19T06:06:48;101458.0;;;18.72;94.45
63956;BME280;50131;52.084;5.228;2022-08-19T06:08:25;101463.0;;;18.75;94.09
63956;BME280;50131;52.084;5.228;2022-08-19T06:10:03;101460.0;;;18.77;94.43
63956;BME280;50131;52.084;5.228;2022-08-19T06:13:21;101463.0;;;18.82;94.22
63956;BME280;50131;52.084;5.228;2022-08-19T06:14:57;101462.0;;;18.93;93.89
63956;BME280;50131;52.084;5.228;2022-08-19T06:16:37;101462.0;;;19.09;94.02
63956;BME280;50131;52.084;5.228;2022-08-19T06:19:52;101465.0;;;19.11;93.75
63956;BME280;50131;52.084;5.228;2022-08-19T06:21:29;101470.0;;;19.16;94.06
63956;BME280;50131;52.084;5.228;2022-08-19T06:23:06;101468.0;;;19.29;94.05
63956;BME280;50131;52.084;5.228;2022-08-19T06:24:43;101468.0;;;19.34;93.93
63956;BME280;50131;52.084;5.228;2022-08-19T06:27:57;101468.0;;;19.34;94.09
63956;BME280;50131;52.084;5.228;2022-08-19T06:29:35;101464.0;;;19.41;94.15
63956;BME280;50131;52.084;5.228;2022-08-19T06:31:15;101465.0;;;19.52;93.92
63956;BME280;50131;52.084;5.228;2022-08-19T06:34:31;101463.0;;;19.57;93.66
63956;BME280;50131;52.084;5.228;2022-08-19T06:36:16;101465.0;;;19.56;93.62
63956;BME280;50131;52.084;5.228;2022-08-19T06:37:54;101463.0;;;19.62;93.3
63956;BME280;50131;52.084;5.228;2022-08-19T06:39:32;101471.0;;;19.7;92.84
63956;BME280;50131;52.084;5.228;2022-08-19T06:42:50;101468.0;;;19.62;93.02
63956;BME280;50131;52.084;5.228;2022-08-19T06:44:30;101466.0;;;19.68;93.23
63956;BME280;50131;52.084;5.228;2022-08-19T06:46:12;101470.0;;;19.72;92.5
63956;BME280;50131;52.084;5.228;2022-08-19T06:47:48;101472.0;;;19.77;92.58
63956;BME280;50131;52.084;5.228;2022-08-19T06:51:08;101473.0;;;19.82;92.48
63956;BME280;50131;52.084;5.228;2022-08-19T06:52:44;101473.0;;;19.86;92.19
63956;BME280;50131;52.084;5.228;2022-08-19T06:54:20;101471.0;;;19.84;91.65
63956;BME280;50131;52.084;5.228;2022-08-19T06:56:00;101467.0;;;19.91;91.23
63956;BME280;50131;52.084;5.228;2022-08-19T06:59:16;101469.0;;;19.97;91.22
63956;BME280;50131;52.084;5.228;2022-08-19T07:01:02;101466.0;;;20.02;90.99
63956;BME280;50131;52.084;5.228;2022-08-19T07:02:40;101468.0;;;20.0;91.39
63956;BME280;50131;52.084;5.228;2022-08-19T07:05:56;101470.0;;;20.11;90.92
63956;BME280;50131;52.084;5.228;2022-08-19T07:07:34;101472.0;;;20.09;90.53
63956;BME280;50131;52.084;5.228;2022-08-19T07:09:14;101473.0;;;20.04;90.38
63956;BME280;50131;52.084;5.228;2022-08-19T07:10:53;101471.0;;;20.2;90.22
63956;BME280;50131;52.084;5.228;2022-08-19T07:14:07;101471.0;;;20.13;89.62
63956;BME280;50131;52.084;5.228;2022-08-19T07:15:46;101474.0;;;20.11;88.99
63956;BME280;50131;52.084;5.228;2022-08-19T07:17:22;101475.0;;;20.12;88.82
63956;BME280;50131;52.084;5.228;2022-08-19T07:18:59;101480.0;;;20.12;88.9
63956;BME280;50131;52.084;5.228;2022-08-19T07:22:15;101481.0;;;20.09;89.12
63956;BME280;50131;52.084;5.228;2022-08-19T07:23:52;101486.0;;;20.16;89.16
63956;BME280;50131;52.084;5.228;2022-08-19T07:25:28;101487.0;;;20.14;88.79
63956;BME280;50131;52.084;5.228;2022-08-19T07:28:43;101489.0;;;20.22;89.56
63956;BME280;50131;52.084;5.228;2022-08-19T07:30:23;101489.0;;;20.3;89.19
63956;BME280;50131;52.084;5.228;2022-08-19T07:32:01;101492.0;;;20.3;88.1
63956;BME280;50131;52.084;5.228;2022-08-19T07:33:37;101491.0;;;20.34;87.52
63956;BME280;50131;52.084;5.228;2022-08-19T07:36:51;101487.0;;;20.32;87.62
63956;BME280;50131;52.084;5.228;2022-08-19T07:38:28;101486.0;;;20.37;86.89
63956;BME280;50131;52.084;5.228;2022-08-19T07:40:06;101488.0;;;20.41;86.38
63956;BME280;50131;52.084;5.228;2022-08-19T07:43:26;101484.0;;;20.45;85.61
63956;BME280;50131;52.084;5.228;2022-08-19T07:45:05;101484.0;;;20.47;86.36
63956;BME280;50131;52.084;5.228;2022-08-19T07:46:47;101490.0;;;20.51;85.92
63956;BME280;50131;52.084;5.228;2022-08-19T07:48:28;101488.0;;;20.63;85.87
63956;BME280;50131;52.084;5.228;2022-08-19T07:51:48;101493.0;;;20.64;85.54
63956;BME280;50131;52.084;5.228;2022-08-19T07:53:25;101501.0;;;20.66;84.97
63956;BME280;50131;52.084;5.228;2022-08-19T07:55:05;101502.0;;;20.72;84.73
63956;BME280;50131;52.084;5.228;2022-08-19T07:56:42;101505.0;;;20.82;84.16
63956;BME280;50131;52.084;5.228;2022-08-19T07:59:58;101505.0;;;20.83;83.75
63956;BME280;50131;52.084;5.228;2022-08-19T08:01:35;101501.0;;;20.9;83.38
63956;BME280;50131;52.084;5.228;2022-08-19T08:03:12;101503.0;;;20.94;83.15
63956;BME280;50131;52.084;5.228;2022-08-19T08:09:31;101506.0;;;21.01;82.54
63956;BME280;50131;52.084;5.228;2022-08-19T08:11:08;101508.0;;;21.11;83.01
63956;BME280;50131;52.084;5.228;2022-08-19T08:12:46;101512.0;;;21.18;81.62
63956;BME280;50131;52.084;5.228;2022-08-19T08:14:25;101518.0;;;21.24;81.11
63956;BME280;50131;52.084;5.228;2022-08-19T08:16:03;101522.0;;;21.32;81.02
63956;BME280;50131;52.084;5.228;2022-08-19T08:17:40;101524.0;;;21.37;81.42
63956;BME280;50131;52.084;5.228;2022-08-19T08:20:57;101527.0;;;21.37;81.22
63956;BME280;50131;52.084;5.228;2022-08-19T08:23:38;101530.0;;;21.45;80.27
63956;BME280;50131;52.084;5.228;2022-08-19T08:25:17;101528.0;;;21.49;79.99
63956;BME280;50131;52.084;5.228;2022-08-19T08:26:57;101527.0;;;21.51;79.8
63956;BME280;50131;52.084;5.228;2022-08-19T08:28:35;101525.0;;;21.59;79.59
63956;BME280;50131;52.084;5.228;2022-08-19T08:30:15;101525.0;;;21.57;79.49
63956;BME280;50131;52.084;5.228;2022-08-19T08:33:30;101530.0;;;21.55;79.45
63956;BME280;50131;52.084;5.228;2022-08-19T08:35:09;101530.0;;;21.7;80.08
63956;BME280;50131;52.084;5.228;2022-08-19T08:36:48;101532.0;;;21.79;79.8
63956;BME280;50131;52.084;5.228;2022-08-19T08:40:03;101528.0;;;21.83;79.36
63956;BME280;50131;52.084;5.228;2022-08-19T08:41:46;101527.0;;;21.85;79.66
63956;BME280;50131;52.084;5.228;2022-08-19T08:43:35;101528.0;;;21.85;78.3
63956;BME280;50131;52.084;5.228;2022-08-19T08:45:17;101525.0;;;21.97;78.64
63956;BME280;50131;52.084;5.228;2022-08-19T08:46:57;101525.0;;;22.06;78.17
63956;BME280;50131;52.084;5.228;2022-08-19T08:50:23;101524.0;;;22.04;78.48
63956;BME280;50131;52.084;5.228;2022-08-19T08:52:07;101528.0;;;22.12;78.08
63956;BME280;50131;52.084;5.228;2022-08-19T08:53:49;101530.0;;;22.16;76.59
63956;BME280;50131;52.084;5.228;2022-08-19T08:55:29;101530.0;;;22.26;77.34
63956;BME280;50131;52.084;5.228;2022-08-19T08:58:58;101528.0;;;22.35;75.86
63956;BME280;50131;52.084;5.228;2022-08-19T09:00:39;101528.0;;;22.39;75.27
63956;BME280;50131;52.084;5.228;2022-08-19T09:02:20;101528.0;;;22.47;77.73
63956;BME280;50131;52.084;5.228;2022-08-19T09:03:56;101528.0;;;22.46;75.02
63956;BME280;50131;52.084;5.228;2022-08-19T09:07:34;101526.0;;;22.51;74.94
63956;BME280;50131;52.084;5.228;2022-08-19T09:09:35;101530.0;;;22.55;74.97
63956;BME280;50131;52.084;5.228;2022-08-19T09:11:18;101530.0;;;22.61;73.67
63956;BME280;50131;52.084;5.228;2022-08-19T09:13:13;101530.0;;;22.69;73.05
63956;BME280;50131;52.084;5.228;2022-08-19T09:15:04;101532.0;;;22.77;73.39
63956;BME280;50131;52.084;5.228;2022-08-19T09:16:41;101538.0;;;22.85;73.61
63956;BME280;50131;52.084;5.228;2022-08-19T09:18:18;101537.0;;;23.0;73.58
63956;BME280;50131;52.084;5.228;2022-08-19T09:21:35;101542.0;;;23.07;72.42
63956;BME280;50131;52.084;5.228;2022-08-19T09:23:11;101537.0;;;23.03;71.12
63956;BME280;50131;52.084;5.228;2022-08-19T09:24:48;101538.0;;;23.05;71.39
63956;BME280;50131;52.084;5.228;2022-08-19T09:28:03;101538.0;;;23.14;71.05
63956;BME280;50131;52.084;5.228;2022-08-19T09:29:39;101537.0;;;23.07;70.94
63956;BME280;50131;52.084;5.228;2022-08-19T09:31:17;101543.0;;;23.05;71.14
63956;BME280;50131;52.084;5.228;2022-08-19T09:33:01;101543.0;;;23.0;70.49
63956;BME280;50131;52.084;5.228;2022-08-19T09:36:16;101542.0;;;23.01;70.64
63956;BME280;50131;52.084;5.228;2022-08-19T09:37:54;101539.0;;;23.18;72.19
63956;BME280;50131;52.084;5.228;2022-08-19T09:39:31;101545.0;;;23.22;70.98
63956;BME280;50131;52.084;5.228;2022-08-19T09:42:48;101544.0;;;23.27;70.05
63956;BME280;50131;52.084;5.228;2022-08-19T09:44:24;101542.0;;;23.25;71.05
63956;BME280;50131;52.084;5.228;2022-08-19T09:46:00;101547.0;;;23.38;72.22
63956;BME280;50131;52.084;5.228;2022-08-19T09:47:38;101546.0;;;23.37;70.5
63956;BME280;50131;52.084;5.228;2022-08-19T09:50:52;101545.0;;;23.45;70.41
63956;BME280;50131;52.084;5.228;2022-08-19T09:52:28;101547.0;;;23.43;69.99
63956;BME280;50131;52.084;5.228;2022-08-19T09:54:04;101540.0;;;23.47;71.73
63956;BME280;50131;52.084;5.228;2022-08-19T09:57:18;101546.0;;;23.48;71.47
63956;BME280;50131;52.084;5.228;2022-08-19T09:58:54;101546.0;;;23.5;70.19
63956;BME280;50131;52.084;5.228;2022-08-19T10:00:30;101543.0;;;23.49;70.77
63956;BME280;50131;52.084;5.228;2022-08-19T10:02:09;101543.0;;;23.54;70.97
63956;BME280;50131;52.084;5.228;2022-08-19T10:05:58;101542.0;;;23.5;70.25
63956;BME280;50131;52.084;5.228;2022-08-19T10:07:35;101539.0;;;23.43;69.92
63956;BME280;50131;52.084;5.228;2022-08-19T10:09:13;101540.0;;;23.44;70.52
63956;BME280;50131;52.084;5.228;2022-08-19T10:10:50;101534.0;;;23.42;71.11
63956;BME280;50131;52.084;5.228;2022-08-19T10:14:06;101536.0;;;23.48;71.24
63956;BME280;50131;52.084;5.228;2022-08-19T10:15:43;101540.0;;;23.57;72.72
63956;BME280;50131;52.084;5.228;2022-08-19T10:17:20;101538.0;;;23.49;70.06
63956;BME280;50131;52.084;5.228;2022-08-19T10:18:57;101537.0;;;23.45;71.19
63956;BME280;50131;52.084;5.228;2022-08-19T10:22:13;101534.0;;;23.57;71.74
63956;BME280;50131;52.084;5.228;2022-08-19T10:23:53;101534.0;;;23.58;73.25
63956;BME280;50131;52.084;5.228;2022-08-19T10:25:32;101536.0;;;23.63;72.44
63956;BME280;50131;52.084;5.228;2022-08-19T10:28:46;101531.0;;;23.72;72.22
63956;BME280;50131;52.084;5.228;2022-08-19T10:30:23;101531.0;;;23.83;72.16
63956;BME280;50131;52.084;5.228;2022-08-19T10:32:00;101531.0;;;23.91;71.52
63956;BME280;50131;52.084;5.228;2022-08-19T10:33:39;101530.0;;;23.99;72.48
63956;BME280;50131;52.084;5.228;2022-08-19T10:36:52;101527.0;;;24.13;72.33
63956;BME280;50131;52.084;5.228;2022-08-19T10:38:28;101528.0;;;24.22;72.27
63956;BME280;50131;52.084;5.228;2022-08-19T10:40:08;101521.0;;;24.27;70.56
63956;BME280;50131;52.084;5.228;2022-08-19T10:43:20;101525.0;;;24.36;71.24
63956;BME280;50131;52.084;5.228;2022-08-19T10:44:57;101528.0;;;24.41;70.87
63956;BME280;50131;52.084;5.228;2022-08-19T10:46:37;101523.0;;;24.54;71.49
63956;BME280;50131;52.084;5.228;2022-08-19T10:48:16;101521.0;;;24.59;70.12
63956;BME280;50131;52.084;5.228;2022-08-19T10:52:48;101527.0;;;24.87;69.58
63956;BME280;50131;52.084;5.228;2022-08-19T10:56:51;101526.0;;;24.91;67.94
63956;BME280;50131;52.084;5.228;2022-08-19T10:58:27;101525.0;;;24.82;67.41
63956;BME280;50131;52.084;5.228;2022-08-19T11:00:04;101523.0;;;24.75;69.27
63956;BME280;50131;52.084;5.228;2022-08-19T11:01:41;101521.0;;;24.94;69.19
63956;BME280;50131;52.084;5.228;2022-08-19T11:03:19;101523.0;;;25.0;69.41
63956;BME280;50131;52.084;5.228;2022-08-19T11:04:56;101526.0;;;25.12;68.1
63956;BME280;50131;52.084;5.228;2022-08-19T11:08:11;101519.0;;;25.07;69.02
63956;BME280;50131;52.084;5.228;2022-08-19T11:09:47;101522.0;;;25.32;69.05
63956;BME280;50131;52.084;5.228;2022-08-19T11:11:24;101518.0;;;25.33;68.86
63956;BME280;50131;52.084;5.228;2022-08-19T11:14:36;101519.0;;;25.52;66.77
63956;BME280;50131;52.084;5.228;2022-08-19T11:16:15;101520.0;;;25.55;65.56
63956;BME280;50131;52.084;5.228;2022-08-19T11:17:54;101513.0;;;25.65;67.05
63956;BME280;50131;52.084;5.228;2022-08-19T11:19:32;101512.0;;;25.8;65.62